createdAt,value
2022-10-13T00:02:28.958Z,15.65
2022-10-13T00:04:58.848Z,19.02
2022-10-13T00:07:30.107Z,12.18
2022-10-13T00:10:00.080Z,13.07
2022-10-13T00:12:30.055Z,13.93
2022-10-13T00:15:00.341Z,18.17
2022-10-13T00:17:30.808Z,14.10
2022-10-13T00:20:01.116Z,23.30
2022-10-13T00:22:31.165Z,14.52
2022-10-13T00:25:01.165Z,14.65
2022-10-13T00:27:31.214Z,10.55
2022-10-13T00:30:01.294Z,11.35
2022-10-13T00:32:31.733Z,16.75
2022-10-13T00:35:01.806Z,11.80
2022-10-13T00:37:31.989Z,9.18
2022-10-13T00:40:01.932Z,8.65
2022-10-13T00:42:32.003Z,11.45
2022-10-13T00:45:25.847Z,10.45
2022-10-13T00:48:00.518Z,10.45
2022-10-13T00:50:39.217Z,10.57
2022-10-13T00:53:09.222Z,15.80
2022-10-13T00:55:39.772Z,56.83
2022-10-13T00:58:11.087Z,54.55
2022-10-13T01:00:41.098Z,41.97
2022-10-13T01:03:12.860Z,38.33
2022-10-13T01:05:43.054Z,39.53
2022-10-13T01:08:16.115Z,34.67
2022-10-13T01:10:57.912Z,48.15
2022-10-13T01:13:40.314Z,29.30
2022-10-13T01:16:21.365Z,24.33
2022-10-13T01:19:13.576Z,32.22
2022-10-13T01:21:49.318Z,21.90
2022-10-13T01:24:39.670Z,23.70
2022-10-13T01:27:21.642Z,20.35
2022-10-13T01:30:10.387Z,25.70
2022-10-13T01:32:51.756Z,20.92
2022-10-13T01:35:37.002Z,23.08
2022-10-13T01:38:09.711Z,23.15
2022-10-13T01:40:45.523Z,25.17
2022-10-13T01:43:33.223Z,33.85
2022-10-13T01:46:24.572Z,24.27
2022-10-13T01:48:56.489Z,27.20
2022-10-13T01:51:27.055Z,24.88
2022-10-13T01:53:57.538Z,19.48
2022-10-13T01:56:27.749Z,17.15
2022-10-13T01:58:58.182Z,22.80
2022-10-13T02:01:29.722Z,24.17
2022-10-13T02:04:20.088Z,17.83
2022-10-13T02:06:59.858Z,24.92
2022-10-13T02:10:01.905Z,25.58
2022-10-13T02:12:55.420Z,18.48
2022-10-13T02:15:30.417Z,22.38
2022-10-13T02:18:03.549Z,21.00
2022-10-13T02:20:33.576Z,23.10
2022-10-13T02:23:09.002Z,22.40
2022-10-13T02:25:39.065Z,16.83
2022-10-13T02:28:09.081Z,23.90
2022-10-13T02:30:45.328Z,17.85
2022-10-13T02:33:15.645Z,15.10
2022-10-13T02:35:45.726Z,18.48
2022-10-13T02:38:15.817Z,18.65
2022-10-13T02:40:46.291Z,14.32
2022-10-13T02:43:16.316Z,14.15
2022-10-13T02:45:46.222Z,12.98
2022-10-13T02:48:16.189Z,15.60
2022-10-13T02:50:46.149Z,13.13
2022-10-13T02:53:16.164Z,24.60
2022-10-13T02:55:46.211Z,25.80
2022-10-13T02:58:24.787Z,29.83
2022-10-13T03:00:54.831Z,36.10
2022-10-13T03:03:24.850Z,33.35
2022-10-13T03:05:56.221Z,16.73
2022-10-13T03:08:26.599Z,15.82
2022-10-13T03:10:56.550Z,18.10
2022-10-13T03:13:26.604Z,19.20
2022-10-13T03:15:56.517Z,16.48
2022-10-13T03:18:27.113Z,15.27
2022-10-13T03:21:04.729Z,14.50
2022-10-13T03:23:34.688Z,21.75
2022-10-13T03:26:05.619Z,19.00
2022-10-13T03:28:35.577Z,15.32
2022-10-13T03:31:09.681Z,16.25
2022-10-13T03:33:39.616Z,17.70
2022-10-13T03:36:09.924Z,12.20
2022-10-13T03:38:40.667Z,13.70
2022-10-13T03:41:14.091Z,13.63
2022-10-13T03:43:44.422Z,11.47
2022-10-13T03:46:15.480Z,12.60
2022-10-13T03:48:46.446Z,10.50
2022-10-13T03:51:20.827Z,20.48
2022-10-13T03:53:52.127Z,14.77
2022-10-13T03:56:27.308Z,11.15
2022-10-13T03:59:01.069Z,11.85
2022-10-13T04:01:31.837Z,13.38
2022-10-13T04:04:03.684Z,12.65
2022-10-13T04:06:33.747Z,12.30
2022-10-13T04:09:03.675Z,12.25
2022-10-13T04:11:33.825Z,12.77
2022-10-13T04:14:04.170Z,12.15
2022-10-13T04:16:34.204Z,15.48
2022-10-13T04:19:05.939Z,11.32
2022-10-13T04:21:36.133Z,12.50
2022-10-13T04:24:06.512Z,13.13
2022-10-13T04:26:37.647Z,13.98
2022-10-13T04:29:11.473Z,14.68
2022-10-13T04:31:43.866Z,14.43
2022-10-13T04:34:13.949Z,11.38
2022-10-13T04:36:43.977Z,13.00
2022-10-13T04:39:13.870Z,19.13
2022-10-13T04:41:43.807Z,14.02
2022-10-13T04:44:13.694Z,12.57
2022-10-13T04:46:44.204Z,14.35
2022-10-13T04:49:14.278Z,14.80
2022-10-13T04:51:44.249Z,14.82
2022-10-13T04:54:14.294Z,18.50
2022-10-13T04:56:50.126Z,13.77
2022-10-13T04:59:26.725Z,14.88
2022-10-13T05:01:56.744Z,13.07
2022-10-13T05:04:26.764Z,16.42
2022-10-13T05:07:17.072Z,14.38
2022-10-13T05:09:47.627Z,14.85
2022-10-13T05:12:18.017Z,17.45
2022-10-13T05:14:49.012Z,13.35
2022-10-13T05:17:20.442Z,13.98
2022-10-13T05:19:51.225Z,15.32
2022-10-13T05:22:21.524Z,16.77
2022-10-13T05:24:52.601Z,14.77
2022-10-13T05:27:24.260Z,17.80
2022-10-13T05:29:54.253Z,17.67
2022-10-13T05:32:24.232Z,18.15
2022-10-13T05:34:54.147Z,16.23
2022-10-13T05:37:24.118Z,18.02
2022-10-13T05:39:54.264Z,17.00
2022-10-13T05:42:24.178Z,14.65
2022-10-13T05:44:54.034Z,17.30
2022-10-13T05:47:27.966Z,14.77
2022-10-13T05:49:58.829Z,14.90
2022-10-13T05:52:28.818Z,14.98
2022-10-13T05:55:00.808Z,16.50
2022-10-13T05:57:33.036Z,18.52
2022-10-13T06:00:09.291Z,18.38
2022-10-13T06:02:59.766Z,13.30
2022-10-13T06:05:29.916Z,14.25
2022-10-13T06:07:59.939Z,17.15
2022-10-13T06:10:29.960Z,10.88
2022-10-13T06:12:59.881Z,16.02
2022-10-13T06:15:29.844Z,11.48
2022-10-13T06:18:00.754Z,10.77
2022-10-13T06:20:30.805Z,12.05
2022-10-13T06:23:00.736Z,14.02
2022-10-13T06:25:30.836Z,10.52
2022-10-13T06:28:03.555Z,9.35
2022-10-13T06:30:33.683Z,12.07
2022-10-13T06:33:06.274Z,12.95
2022-10-13T06:35:37.680Z,10.90
2022-10-13T06:38:07.620Z,10.15
2022-10-13T06:40:37.950Z,8.80
2022-10-13T06:43:08.284Z,9.68
2022-10-13T06:45:44.280Z,9.93
2022-10-13T06:48:15.231Z,11.52
2022-10-13T06:50:45.242Z,10.55
2022-10-13T06:53:15.131Z,9.05
2022-10-13T06:55:47.081Z,8.55
2022-10-13T06:58:20.184Z,8.65
2022-10-13T07:00:50.220Z,9.05
2022-10-13T07:03:20.236Z,8.93
2022-10-13T07:05:50.147Z,6.70
2022-10-13T07:08:20.394Z,9.23
2022-10-13T07:10:50.343Z,8.88
2022-10-13T07:15:54.981Z,10.35
2022-10-13T07:18:24.936Z,7.35
2022-10-13T07:20:54.934Z,6.45
2022-10-13T07:23:24.929Z,8.52
2022-10-13T07:25:56.106Z,10.23
2022-10-13T07:28:26.997Z,7.25
2022-10-13T07:30:57.062Z,6.75
2022-10-13T07:33:27.218Z,7.93
2022-10-13T07:36:00.106Z,8.40
2022-10-13T07:38:30.120Z,9.68
2022-10-13T07:41:03.624Z,6.25
2022-10-13T07:43:33.592Z,5.80
2022-10-13T07:46:08.265Z,8.02
2022-10-13T07:48:38.258Z,8.05
2022-10-13T07:51:09.765Z,11.63
2022-10-13T07:53:43.308Z,7.68
2022-10-13T07:56:13.884Z,9.13
2022-10-13T07:58:45.863Z,8.60
2022-10-13T08:01:16.458Z,9.38
2022-10-13T08:03:50.155Z,10.07
2022-10-13T08:06:24.025Z,9.45
2022-10-13T08:08:58.882Z,11.38
2022-10-13T08:11:29.338Z,10.32
2022-10-13T08:14:02.292Z,12.70
2022-10-13T08:16:33.543Z,11.27
2022-10-13T08:19:03.600Z,12.27
2022-10-13T08:21:57.091Z,16.30
2022-10-13T08:24:26.229Z,11.35
2022-10-13T08:26:56.285Z,18.50
2022-10-13T08:29:26.647Z,14.38
2022-10-13T08:31:56.950Z,11.02
2022-10-13T08:34:27.146Z,11.27
2022-10-13T08:36:58.547Z,14.93
2022-10-13T08:39:28.495Z,12.63
2022-10-13T08:42:00.692Z,12.32
2022-10-13T08:45:16.043Z,13.82
2022-10-13T08:47:37.778Z,15.55
2022-10-13T08:50:19.887Z,12.80
2022-10-13T08:53:02.292Z,12.18
2022-10-13T08:55:45.861Z,10.57
2022-10-13T09:01:01.847Z,12.25
2022-10-13T09:03:32.184Z,10.57
2022-10-13T09:06:23.058Z,12.77
2022-10-13T09:09:00.086Z,8.98
2022-10-13T09:11:41.018Z,7.30
2022-10-13T09:14:13.115Z,6.90
2022-10-13T09:16:45.000Z,9.27
2022-10-13T09:19:28.595Z,8.52
2022-10-13T09:22:00.226Z,9.68
2022-10-13T09:24:30.257Z,8.02
2022-10-13T09:27:14.424Z,10.35
2022-10-13T09:29:45.537Z,8.30
2022-10-13T09:32:26.874Z,5.80
2022-10-13T09:34:56.921Z,4.53
2022-10-13T09:37:27.943Z,4.70
2022-10-13T09:40:14.615Z,7.28
2022-10-13T09:42:47.706Z,7.20
2022-10-13T09:45:19.315Z,6.88
2022-10-13T09:48:08.035Z,6.00
2022-10-13T09:50:48.712Z,4.82
2022-10-13T09:53:44.646Z,5.10
2022-10-13T09:56:21.957Z,4.82
2022-10-13T09:59:40.419Z,4.32
2022-10-13T10:02:33.609Z,4.70
2022-10-13T10:05:27.637Z,7.03
2022-10-13T10:08:05.621Z,5.65
2022-10-13T10:10:38.386Z,6.78
2022-10-13T10:13:13.339Z,5.88
2022-10-13T10:16:14.840Z,5.88
2022-10-13T10:18:53.856Z,6.15
2022-10-13T10:21:26.284Z,5.93
2022-10-13T10:24:41.704Z,5.40
2022-10-13T10:30:03.626Z,4.88
2022-10-13T10:32:52.254Z,5.03
2022-10-13T10:35:49.248Z,4.25
2022-10-13T10:38:25.480Z,3.90
2022-10-13T10:41:48.346Z,4.22
2022-10-13T10:44:40.512Z,4.57
2022-10-13T10:47:34.248Z,6.85
2022-10-13T10:50:06.241Z,7.13
2022-10-13T10:53:06.103Z,4.53
2022-10-13T10:55:41.794Z,4.13
2022-10-13T10:58:30.769Z,4.45
2022-10-13T11:01:20.750Z,5.05
2022-10-13T11:04:11.080Z,3.83
2022-10-13T11:06:41.129Z,9.05
2022-10-13T11:09:12.583Z,3.78
2022-10-13T11:11:43.681Z,4.97
2022-10-13T11:14:26.679Z,4.18
2022-10-13T11:17:08.833Z,3.83
2022-10-13T11:19:40.754Z,4.40
2022-10-13T11:22:19.160Z,5.45
2022-10-13T11:24:54.170Z,5.65
2022-10-13T11:27:27.775Z,4.85
2022-10-13T11:30:01.519Z,4.82
2022-10-13T11:32:37.058Z,3.85
2022-10-13T11:35:07.422Z,3.95
2022-10-13T11:38:07.240Z,5.55
2022-10-13T11:41:02.335Z,3.45
2022-10-13T11:43:37.585Z,4.90
2022-10-13T11:46:16.609Z,4.88
2022-10-13T11:48:49.555Z,3.97
2022-10-13T11:51:33.055Z,3.83
2022-10-13T11:54:08.195Z,5.53
2022-10-13T11:56:55.718Z,3.90
2022-10-13T11:59:35.940Z,4.32
2022-10-13T12:02:16.003Z,4.25
2022-10-13T12:05:08.141Z,4.65
2022-10-13T12:07:42.324Z,5.85
2022-10-13T12:10:36.048Z,6.75
2022-10-13T12:13:08.612Z,6.15
2022-10-13T12:15:39.961Z,7.55
2022-10-13T12:18:31.072Z,6.18
2022-10-13T12:21:02.403Z,7.97
2022-10-13T12:23:33.448Z,8.15
2022-10-13T12:26:03.630Z,7.45
2022-10-13T12:28:52.414Z,7.05
2022-10-13T12:31:27.214Z,8.20
2022-10-13T12:33:59.077Z,7.40
2022-10-13T12:36:32.453Z,7.85
2022-10-13T12:41:38.001Z,7.95
2022-10-13T12:44:11.030Z,7.53
2022-10-13T12:49:25.430Z,7.55
2022-10-13T12:52:24.059Z,7.28
2022-10-13T12:54:57.301Z,8.02
2022-10-13T12:57:36.399Z,8.10
2022-10-13T13:00:24.004Z,8.93
2022-10-13T13:02:55.670Z,7.57
2022-10-13T13:05:51.685Z,8.63
2022-10-13T13:08:30.571Z,6.40
2022-10-13T13:11:11.595Z,8.23
2022-10-13T13:13:42.183Z,8.13
2022-10-13T13:16:17.407Z,8.60
2022-10-13T13:18:48.285Z,8.50
2022-10-13T13:21:20.277Z,9.27
2022-10-13T13:23:53.765Z,9.10
2022-10-13T13:26:25.117Z,8.25
2022-10-13T13:28:56.401Z,7.95
2022-10-13T13:31:27.123Z,7.80
2022-10-13T13:33:57.365Z,9.10
2022-10-13T13:36:28.096Z,7.18
2022-10-13T13:38:58.248Z,12.00
2022-10-13T13:41:32.120Z,9.15
2022-10-13T13:44:02.473Z,8.65
2022-10-13T13:46:33.491Z,9.30
2022-10-13T13:49:04.237Z,8.57
2022-10-13T13:51:34.727Z,9.73
2022-10-13T13:54:05.251Z,8.27
2022-10-13T13:56:40.410Z,8.07
2022-10-13T13:59:10.441Z,10.40
2022-10-13T14:01:40.845Z,9.43
2022-10-13T14:04:11.360Z,8.23
2022-10-13T14:06:41.670Z,9.60
2022-10-13T14:09:11.530Z,9.48
2022-10-13T14:11:41.776Z,8.98
2022-10-13T14:14:11.708Z,9.88
2022-10-13T14:16:42.878Z,9.57
2022-10-13T14:19:13.035Z,11.18
2022-10-13T14:21:46.244Z,8.32
2022-10-13T14:24:21.751Z,12.38
2022-10-13T14:26:52.934Z,9.10
2022-10-13T14:29:23.064Z,9.10
2022-10-13T14:31:54.157Z,11.40
2022-10-13T14:34:24.438Z,9.38
2022-10-13T14:36:54.893Z,11.50
2022-10-13T14:39:25.134Z,9.73
2022-10-13T14:41:55.263Z,10.68
2022-10-13T14:44:27.490Z,11.73
2022-10-13T14:46:57.931Z,11.10
2022-10-13T14:49:28.863Z,10.82
2022-10-13T14:51:58.908Z,10.73
2022-10-13T14:54:28.837Z,10.40
2022-10-13T14:57:01.702Z,10.05
2022-10-13T14:59:31.992Z,10.30
2022-10-13T15:02:02.161Z,11.82
2022-10-13T15:04:32.279Z,12.18
2022-10-13T15:07:02.560Z,12.30
2022-10-13T15:09:45.475Z,19.20
2022-10-13T15:12:24.369Z,25.05
2022-10-13T15:14:54.501Z,23.42
2022-10-13T15:17:24.800Z,22.88
2022-10-13T15:19:59.333Z,25.08
2022-10-13T15:22:30.212Z,18.90
2022-10-13T15:25:05.741Z,24.23
2022-10-13T15:27:41.478Z,20.27
2022-10-13T15:30:12.308Z,16.42
2022-10-13T15:32:42.274Z,17.10
2022-10-13T15:35:12.235Z,13.07
2022-10-13T15:37:44.461Z,24.75
2022-10-13T15:40:14.784Z,28.30
2022-10-13T15:42:47.949Z,18.58
2022-10-13T15:45:18.017Z,15.48
2022-10-13T15:47:47.908Z,19.20
2022-10-13T15:50:17.932Z,19.55
2022-10-13T15:52:49.004Z,18.65
2022-10-13T15:55:20.130Z,26.85
2022-10-13T15:57:50.097Z,16.55
2022-10-13T16:00:20.098Z,21.52
2022-10-13T16:02:52.229Z,28.60
2022-10-13T16:05:22.339Z,26.88
2022-10-13T16:07:52.449Z,26.13
2022-10-13T16:10:22.432Z,25.52
2022-10-13T16:12:52.621Z,16.52
2022-10-13T16:15:22.582Z,19.20
2022-10-13T16:17:54.460Z,19.05
2022-10-13T16:20:24.476Z,18.85
2022-10-13T16:22:55.431Z,17.13
2022-10-13T16:25:25.313Z,15.98
2022-10-13T16:27:55.225Z,18.48
2022-10-13T16:30:25.139Z,14.10
2022-10-13T16:32:55.371Z,15.85
2022-10-13T16:35:25.332Z,15.15
2022-10-13T16:37:55.523Z,15.27
2022-10-13T16:40:25.342Z,18.15
2022-10-13T16:42:55.215Z,14.00
2022-10-13T16:45:41.132Z,16.05
2022-10-13T16:48:14.994Z,18.70
2022-10-13T16:50:48.201Z,16.23
2022-10-13T16:53:18.246Z,14.95
2022-10-13T16:55:48.464Z,14.80
2022-10-13T16:58:19.389Z,16.20
2022-10-13T17:00:49.388Z,15.68
2022-10-13T17:03:19.464Z,16.73
2022-10-13T17:05:54.560Z,16.58
2022-10-13T17:08:25.334Z,14.57
2022-10-13T17:10:58.309Z,14.73
2022-10-13T17:13:29.224Z,14.75
2022-10-13T17:15:59.607Z,16.33
2022-10-13T17:18:30.018Z,15.93
2022-10-13T17:21:06.483Z,16.42
2022-10-13T17:23:36.439Z,11.60
2022-10-13T17:26:08.287Z,15.27
2022-10-13T17:28:39.624Z,13.98
2022-10-13T17:31:13.076Z,13.75
2022-10-13T17:33:45.125Z,12.60
2022-10-13T17:36:19.249Z,13.48
2022-10-13T17:38:50.397Z,15.75
2022-10-13T17:41:21.213Z,13.63
2022-10-13T17:43:53.107Z,20.00
2022-10-13T17:46:42.846Z,16.02
2022-10-13T17:49:13.317Z,16.67
2022-10-13T17:51:43.714Z,15.88
2022-10-13T17:54:16.769Z,14.55
2022-10-13T17:56:48.439Z,15.45
2022-10-13T17:59:18.799Z,13.10
2022-10-13T18:01:48.861Z,15.30
2022-10-13T18:04:20.138Z,14.30
2022-10-13T18:06:50.140Z,14.05
2022-10-13T18:09:21.518Z,15.57
2022-10-13T18:11:53.269Z,14.80
2022-10-13T18:14:24.569Z,15.43
2022-10-13T18:16:55.033Z,16.23
2022-10-13T18:19:25.167Z,14.45
2022-10-13T18:21:55.925Z,14.93
2022-10-13T18:24:26.385Z,11.85
2022-10-13T18:26:58.408Z,13.70
2022-10-13T18:29:31.900Z,13.43
2022-10-13T18:32:01.928Z,13.02
2022-10-13T18:34:32.471Z,13.55
2022-10-13T18:37:02.428Z,15.30
2022-10-13T18:39:35.307Z,13.88
2022-10-13T18:42:05.282Z,14.43
2022-10-13T18:44:38.750Z,15.55
2022-10-13T18:47:08.686Z,15.02
2022-10-13T18:49:38.960Z,15.57
2022-10-13T18:52:09.172Z,13.82
2022-10-13T18:54:42.257Z,12.75
2022-10-13T18:57:12.841Z,13.70
2022-10-13T18:59:43.390Z,11.65
2022-10-13T19:02:15.782Z,17.67
2022-10-13T19:04:46.003Z,14.98
2022-10-13T19:07:16.255Z,14.07
2022-10-13T19:09:46.180Z,13.30
2022-10-13T19:12:16.320Z,10.90
2022-10-13T19:14:46.895Z,10.32
2022-10-13T19:17:16.992Z,13.10
2022-10-13T19:19:47.568Z,12.25
2022-10-13T19:22:17.810Z,13.30
2022-10-13T19:24:48.201Z,14.75
2022-10-13T19:27:18.937Z,12.77
2022-10-13T19:29:52.865Z,11.68
2022-10-13T19:32:22.776Z,14.88
2022-10-13T19:34:52.681Z,11.82
2022-10-13T19:37:23.049Z,11.82
2022-10-13T19:39:53.220Z,11.10
2022-10-13T19:42:23.171Z,12.13
2022-10-13T19:44:53.082Z,13.35
2022-10-13T19:47:23.359Z,11.68
2022-10-13T19:49:53.493Z,12.18
2022-10-13T19:52:24.476Z,12.45
2022-10-13T19:54:55.181Z,12.00
2022-10-13T19:57:25.414Z,11.80
2022-10-13T19:59:55.635Z,13.07
2022-10-13T20:02:25.944Z,12.10
2022-10-13T20:04:56.751Z,12.18
2022-10-13T20:07:26.804Z,11.38
2022-10-13T20:09:56.942Z,10.25
2022-10-13T20:12:27.361Z,11.15
2022-10-13T20:14:57.235Z,9.75
2022-10-13T20:17:27.213Z,12.40
2022-10-13T20:19:57.187Z,9.43
2022-10-13T20:22:27.216Z,11.75
2022-10-13T20:24:57.574Z,10.75
2022-10-13T20:27:27.424Z,11.18
2022-10-13T20:29:59.888Z,11.93
2022-10-13T20:32:29.855Z,10.47
2022-10-13T20:34:59.965Z,9.52
2022-10-13T20:37:30.408Z,11.48
2022-10-13T20:40:03.255Z,11.82
2022-10-13T20:42:33.949Z,10.65
2022-10-13T20:45:04.410Z,10.48
2022-10-13T20:47:35.642Z,10.45
2022-10-13T20:50:09.568Z,9.77
2022-10-13T20:52:39.845Z,8.23
2022-10-13T20:55:10.163Z,9.43
2022-10-13T20:57:40.141Z,11.32
2022-10-13T21:00:11.495Z,11.65
2022-10-13T21:02:41.410Z,10.40
2022-10-13T21:05:11.322Z,8.68
2022-10-13T21:07:46.840Z,10.10
2022-10-13T21:10:16.942Z,9.63
2022-10-13T21:12:46.849Z,11.95
2022-10-13T21:15:16.783Z,11.23
2022-10-13T21:17:46.903Z,9.98
2022-10-13T21:20:16.934Z,12.15
2022-10-13T21:22:46.879Z,10.75
2022-10-13T21:25:16.934Z,11.30
2022-10-13T21:27:46.963Z,10.18
2022-10-13T21:30:16.953Z,10.30
2022-10-13T21:32:46.886Z,10.40
2022-10-13T21:35:17.083Z,10.20
2022-10-13T21:37:46.999Z,9.90
2022-10-13T21:40:16.953Z,8.95
2022-10-13T21:42:46.846Z,9.98
2022-10-13T21:45:16.780Z,9.63
2022-10-13T21:47:46.694Z,8.55
2022-10-13T21:50:17.017Z,8.32
2022-10-13T21:52:47.676Z,7.97
2022-10-13T21:55:17.754Z,8.52
2022-10-13T21:57:47.704Z,17.83
2022-10-13T22:00:18.278Z,8.68
2022-10-13T22:02:48.723Z,11.85
2022-10-13T22:05:23.175Z,11.27
2022-10-13T22:07:55.283Z,8.10
2022-10-13T22:10:25.687Z,9.55
2022-10-13T22:12:59.116Z,27.77
2022-10-13T22:15:29.265Z,9.93
2022-10-13T22:17:59.952Z,9.60
2022-10-13T22:20:32.277Z,9.38
2022-10-13T22:23:02.549Z,10.32
2022-10-13T22:25:35.052Z,10.25
2022-10-13T22:28:05.040Z,10.50
2022-10-13T22:30:41.056Z,11.18
2022-10-13T22:33:12.581Z,9.55
2022-10-13T22:35:43.231Z,9.07
2022-10-13T22:38:13.214Z,7.82
2022-10-13T22:40:43.353Z,9.85
2022-10-13T22:43:13.385Z,11.40
2022-10-13T22:45:54.319Z,8.32
2022-10-13T22:48:24.428Z,7.35
2022-10-13T22:50:54.330Z,7.35
2022-10-13T22:53:24.208Z,7.68
2022-10-13T22:55:54.385Z,8.13
2022-10-13T22:58:24.412Z,8.50
2022-10-13T23:00:58.344Z,7.38
2022-10-13T23:03:28.265Z,8.75
2022-10-13T23:06:01.249Z,12.75
2022-10-13T23:08:31.273Z,7.68
2022-10-13T23:11:01.552Z,8.68
2022-10-13T23:13:31.488Z,8.43
2022-10-13T23:16:14.973Z,11.05
2022-10-13T23:18:45.077Z,11.80
2022-10-13T23:21:28.265Z,8.98
2022-10-13T23:24:05.395Z,8.77
2022-10-13T23:26:35.754Z,7.85
2022-10-13T23:29:05.856Z,13.38
2022-10-13T23:31:35.782Z,8.55
2022-10-13T23:34:05.754Z,10.88
2022-10-13T23:36:35.829Z,7.30
2022-10-13T23:39:07.650Z,6.28
2022-10-13T23:41:40.548Z,9.63
2022-10-13T23:44:10.400Z,7.00
2022-10-13T23:46:40.238Z,7.85
2022-10-13T23:49:14.702Z,6.82
2022-10-13T23:51:45.282Z,8.25
2022-10-13T23:54:15.383Z,7.55
2022-10-13T23:56:47.094Z,7.47
2022-10-13T23:59:16.965Z,11.05
